sensor_id;sensor_type;location;lat;lon;timestamp;pressure;altitude;pressure_sealevel;temperature;humidity
21779;BME280;11050;52.222;20.916;2023-05-02T00:00:30;100130.41;;;10.79;58.87
21779;BME280;11050;52.222;20.916;2023-05-02T00:02:56;100137.31;;;10.82;58.74
21779;BME280;11050;52.222;20.916;2023-05-02T00:05:22;100127.06;;;10.72;59.26
21779;BME280;11050;52.222;20.916;2023-05-02T00:07:50;100137.25;;;10.77;59.72
21779;BME280;11050;52.222;20.916;2023-05-02T00:10:16;100126.53;;;10.75;60.07
21779;BME280;11050;52.222;20.916;2023-05-02T00:12:42;100111.59;;;10.66;59.90
21779;BME280;11050;52.222;20.916;2023-05-02T00:15:08;100130.38;;;10.74;59.55
21779;BME280;11050;52.222;20.916;2023-05-02T00:17:35;100129.53;;;10.74;60.03
21779;BME280;11050;52.222;20.916;2023-05-02T00:20:01;100120.41;;;10.68;60.07
21779;BME280;11050;52.222;20.916;2023-05-02T00:22:29;100120.09;;;10.65;60.66
21779;BME280;11050;52.222;20.916;2023-05-02T00:24:58;100124.25;;;10.67;60.18
21779;BME280;11050;52.222;20.916;2023-05-02T00:27:24;100110.75;;;10.66;60.45
21779;BME280;11050;52.222;20.916;2023-05-02T00:29:49;100107.19;;;10.65;60.62
21779;BME280;11050;52.222;20.916;2023-05-02T00:32:17;100106.63;;;10.63;60.77
21779;BME280;11050;52.222;20.916;2023-05-02T00:34:43;100101.31;;;10.57;61.14
21779;BME280;11050;52.222;20.916;2023-05-02T00:37:09;100101.06;;;10.58;61.45
21779;BME280;11050;52.222;20.916;2023-05-02T00:39:34;100103.34;;;10.66;61.03
21779;BME280;11050;52.222;20.916;2023-05-02T00:42:00;100098.88;;;10.60;61.21
21779;BME280;11050;52.222;20.916;2023-05-02T00:44:27;100087.84;;;10.55;60.82
21779;BME280;11050;52.222;20.916;2023-05-02T00:46:57;100102.78;;;10.64;60.96
21779;BME280;11050;52.222;20.916;2023-05-02T00:49:25;100094.75;;;10.58;61.70
21779;BME280;11050;52.222;20.916;2023-05-02T00:51:53;100099.69;;;10.56;61.95
21779;BME280;11050;52.222;20.916;2023-05-02T00:54:19;100098.00;;;10.55;61.89
21779;BME280;11050;52.222;20.916;2023-05-02T00:56:45;100096.34;;;10.54;61.74
21779;BME280;11050;52.222;20.916;2023-05-02T00:59:12;100094.69;;;10.52;62.07
21779;BME280;11050;52.222;20.916;2023-05-02T01:04:53;100081.44;;;10.44;62.31
21779;BME280;11050;52.222;20.916;2023-05-02T01:08:12;100087.72;;;10.45;62.32
21779;BME280;11050;52.222;20.916;2023-05-02T01:11:03;100084.09;;;10.39;62.39
21779;BME280;11050;52.222;20.916;2023-05-02T01:13:33;100072.28;;;10.39;62.11
21779;BME280;11050;52.222;20.916;2023-05-02T01:16:03;100087.16;;;10.43;62.35
21779;BME280;11050;52.222;20.916;2023-05-02T01:18:34;100087.72;;;10.45;62.35
21779;BME280;11050;52.222;20.916;2023-05-02T01:21:06;100070.63;;;10.38;62.26
21779;BME280;11050;52.222;20.916;2023-05-02T01:24:05;100077.28;;;10.42;62.47
21779;BME280;11050;52.222;20.916;2023-05-02T01:29:29;100068.72;;;10.38;62.58
21779;BME280;11050;52.222;20.916;2023-05-02T01:31:59;100076.97;;;10.38;62.84
21779;BME280;11050;52.222;20.916;2023-05-02T01:34:28;100073.91;;;10.35;62.86
21779;BME280;11050;52.222;20.916;2023-05-02T01:36:58;100074.13;;;10.33;62.62
21779;BME280;11050;52.222;20.916;2023-05-02T01:39:26;100052.13;;;10.28;62.68
21779;BME280;11050;52.222;20.916;2023-05-02T01:41:55;100064.53;;;10.31;63.01
21779;BME280;11050;52.222;20.916;2023-05-02T01:44:23;100058.44;;;10.29;63.11
21779;BME280;11050;52.222;20.916;2023-05-02T01:46:53;100057.88;;;10.27;63.12
21779;BME280;11050;52.222;20.916;2023-05-02T01:49:22;100059.84;;;10.31;63.36
21779;BME280;11050;52.222;20.916;2023-05-02T01:51:50;100060.09;;;10.30;63.45
21779;BME280;11050;52.222;20.916;2023-05-02T01:54:19;100053.22;;;10.27;63.40
21779;BME280;11050;52.222;20.916;2023-05-02T01:56:46;100047.97;;;10.26;63.15
21779;BME280;11050;52.222;20.916;2023-05-02T01:59:19;100048.22;;;10.24;64.20
21779;BME280;11050;52.222;20.916;2023-05-02T02:01:49;100043.75;;;10.18;64.02
21779;BME280;11050;52.222;20.916;2023-05-02T02:04:18;100041.28;;;10.17;64.37
21779;BME280;11050;52.222;20.916;2023-05-02T02:06:49;100042.06;;;10.12;64.17
21779;BME280;11050;52.222;20.916;2023-05-02T02:09:16;100033.31;;;10.15;64.04
21779;BME280;11050;52.222;20.916;2023-05-02T02:12:05;100039.88;;;10.14;63.70
21779;BME280;11050;52.222;20.916;2023-05-02T02:14:38;100027.53;;;10.17;64.29
21779;BME280;11050;52.222;20.916;2023-05-02T02:17:14;100028.56;;;10.11;64.10
21779;BME280;11050;52.222;20.916;2023-05-02T02:19:43;100026.84;;;10.05;64.54
21779;BME280;11050;52.222;20.916;2023-05-02T02:22:12;100021.09;;;10.06;64.32
21779;BME280;11050;52.222;20.916;2023-05-02T02:24:39;100015.03;;;10.04;64.60
21779;BME280;11050;52.222;20.916;2023-05-02T02:27:05;100027.50;;;10.12;64.73
21779;BME280;11050;52.222;20.916;2023-05-02T02:29:31;100024.75;;;10.12;64.40
21779;BME280;11050;52.222;20.916;2023-05-02T02:31:57;100024.19;;;10.10;65.26
21779;BME280;11050;52.222;20.916;2023-05-02T02:34:23;100024.41;;;10.08;65.05
21779;BME280;11050;52.222;20.916;2023-05-02T02:37:08;100022.28;;;10.10;65.12
21779;BME280;11050;52.222;20.916;2023-05-02T02:40:28;100036.81;;;10.11;64.92
21779;BME280;11050;52.222;20.916;2023-05-02T02:43:47;100024.19;;;10.10;64.97
21779;BME280;11050;52.222;20.916;2023-05-02T02:49:37;100026.09;;;10.09;65.65
21779;BME280;11050;52.222;20.916;2023-05-02T02:54:57;100020.78;;;10.03;66.16
21779;BME280;11050;52.222;20.916;2023-05-02T02:57:36;100017.69;;;9.99;65.78
21779;BME280;11050;52.222;20.916;2023-05-02T03:00:24;100007.13;;;9.86;66.49
21779;BME280;11050;52.222;20.916;2023-05-02T03:02:51;100016.75;;;9.89;66.79
21779;BME280;11050;52.222;20.916;2023-05-02T03:05:20;100019.25;;;9.90;67.03
21779;BME280;11050;52.222;20.916;2023-05-02T03:07:47;100017.28;;;9.86;67.32
21779;BME280;11050;52.222;20.916;2023-05-02T03:10:13;100019.19;;;9.85;67.19
21779;BME280;11050;52.222;20.916;2023-05-02T03:12:38;100013.38;;;9.82;67.86
21779;BME280;11050;52.222;20.916;2023-05-02T03:17:55;100016.13;;;9.82;68.16
21779;BME280;11050;52.222;20.916;2023-05-02T03:20:20;100024.09;;;9.83;67.88
21779;BME280;11050;52.222;20.916;2023-05-02T03:22:46;100013.44;;;9.87;67.67
21779;BME280;11050;52.222;20.916;2023-05-02T03:25:11;100020.34;;;9.89;67.91
21779;BME280;11050;52.222;20.916;2023-05-02T03:27:37;100011.59;;;9.92;68.07
21779;BME280;11050;52.222;20.916;2023-05-02T03:30:04;100006.34;;;9.91;68.21
21779;BME280;11050;52.222;20.916;2023-05-02T03:32:29;100019.06;;;9.97;68.01
21779;BME280;11050;52.222;20.916;2023-05-02T03:34:55;100013.56;;;9.97;68.28
21779;BME280;11050;52.222;20.916;2023-05-02T03:37:23;100010.56;;;9.98;68.34
21779;BME280;11050;52.222;20.916;2023-05-02T03:39:49;100026.19;;;9.98;68.01
21779;BME280;11050;52.222;20.916;2023-05-02T03:42:15;100019.38;;;10.00;68.51
21779;BME280;11050;52.222;20.916;2023-05-02T03:44:40;100013.34;;;10.03;68.22
21779;BME280;11050;52.222;20.916;2023-05-02T03:47:06;100017.25;;;10.07;67.74
21779;BME280;11050;52.222;20.916;2023-05-02T03:49:34;100018.69;;;10.10;67.79
21779;BME280;11050;52.222;20.916;2023-05-02T03:52:01;100018.75;;;10.15;68.50
21779;BME280;11050;52.222;20.916;2023-05-02T03:54:27;100023.19;;;10.21;67.97
21779;BME280;11050;52.222;20.916;2023-05-02T03:56:55;100024.34;;;10.25;68.21
21779;BME280;11050;52.222;20.916;2023-05-02T03:59:22;99997.88;;;10.14;68.66
21779;BME280;11050;52.222;20.916;2023-05-02T04:01:48;100024.69;;;10.33;67.25
21779;BME280;11050;52.222;20.916;2023-05-02T04:04:17;100020.03;;;10.34;67.47
21779;BME280;11050;52.222;20.916;2023-05-02T04:06:42;100023.38;;;10.36;67.17
21779;BME280;11050;52.222;20.916;2023-05-02T04:09:08;100023.09;;;10.37;67.61
21779;BME280;11050;52.222;20.916;2023-05-02T04:11:33;100025.91;;;10.42;67.03
21779;BME280;11050;52.222;20.916;2023-05-02T04:13:59;100023.41;;;10.41;67.30
21779;BME280;11050;52.222;20.916;2023-05-02T04:16:25;100012.63;;;10.34;66.97
21779;BME280;11050;52.222;20.916;2023-05-02T04:18:50;100024.25;;;10.41;67.53
21779;BME280;11050;52.222;20.916;2023-05-02T04:21:16;100031.75;;;10.51;67.22
21779;BME280;11050;52.222;20.916;2023-05-02T04:23:42;100016.09;;;10.52;66.92
21779;BME280;11050;52.222;20.916;2023-05-02T04:26:07;100034.88;;;10.60;67.42
21779;BME280;11050;52.222;20.916;2023-05-02T04:28:34;100019.19;;;10.60;66.90
21779;BME280;11050;52.222;20.916;2023-05-02T04:31:00;100028.31;;;10.66;67.11
21779;BME280;11050;52.222;20.916;2023-05-02T04:33:27;100021.78;;;10.72;66.49
21779;BME280;11050;52.222;20.916;2023-05-02T04:35:53;100023.97;;;10.70;67.08
21779;BME280;11050;52.222;20.916;2023-05-02T04:38:18;100024.25;;;10.73;66.66
21779;BME280;11050;52.222;20.916;2023-05-02T04:40:44;100029.25;;;10.76;67.06
21779;BME280;11050;52.222;20.916;2023-05-02T04:43:10;100033.72;;;10.82;66.63
21779;BME280;11050;52.222;20.916;2023-05-02T04:45:36;100022.72;;;10.82;66.56
21779;BME280;11050;52.222;20.916;2023-05-02T04:48:02;100027.41;;;10.87;66.80
21779;BME280;11050;52.222;20.916;2023-05-02T04:50:28;100033.75;;;10.87;67.38
21779;BME280;11050;52.222;20.916;2023-05-02T04:52:54;100020.56;;;10.89;67.33
21779;BME280;11050;52.222;20.916;2023-05-02T04:55:20;100024.44;;;10.93;66.51
21779;BME280;11050;52.222;20.916;2023-05-02T04:57:45;100029.41;;;10.96;66.46
21779;BME280;11050;52.222;20.916;2023-05-02T05:00:12;100027.53;;;11.02;66.54
21779;BME280;11050;52.222;20.916;2023-05-02T05:02:38;100020.72;;;11.14;66.02
21779;BME280;11050;52.222;20.916;2023-05-02T05:05:05;100025.81;;;11.27;66.16
21779;BME280;11050;52.222;20.916;2023-05-02T05:07:30;100028.66;;;11.42;64.91
21779;BME280;11050;52.222;20.916;2023-05-02T05:09:56;100022.34;;;11.52;64.72
21779;BME280;11050;52.222;20.916;2023-05-02T05:12:22;100022.72;;;11.66;64.39
21779;BME280;11050;52.222;20.916;2023-05-02T05:14:47;100017.84;;;11.78;64.08
21779;BME280;11050;52.222;20.916;2023-05-02T05:17:15;100016.50;;;11.85;63.71
21779;BME280;11050;52.222;20.916;2023-05-02T05:19:40;100018.19;;;12.01;63.67
21779;BME280;11050;52.222;20.916;2023-05-02T05:22:07;100014.94;;;12.14;62.63
21779;BME280;11050;52.222;20.916;2023-05-02T05:24:33;100013.63;;;12.27;62.11
21779;BME280;11050;52.222;20.916;2023-05-02T05:26:58;100007.56;;;12.40;61.87
21779;BME280;11050;52.222;20.916;2023-05-02T05:29:24;100015.56;;;12.62;61.50
21779;BME280;11050;52.222;20.916;2023-05-02T05:31:50;100009.81;;;12.78;60.58
21779;BME280;11050;52.222;20.916;2023-05-02T05:34:15;100021.13;;;13.02;60.08
21779;BME280;11050;52.222;20.916;2023-05-02T05:36:42;100013.38;;;13.24;59.21
21779;BME280;11050;52.222;20.916;2023-05-02T05:39:08;100015.81;;;13.56;58.12
21779;BME280;11050;52.222;20.916;2023-05-02T05:41:34;100011.56;;;13.88;57.60
21779;BME280;11050;52.222;20.916;2023-05-02T05:44:00;100008.09;;;14.16;56.10
21779;BME280;11050;52.222;20.916;2023-05-02T05:46:26;100010.25;;;14.35;55.02
21779;BME280;11050;52.222;20.916;2023-05-02T05:48:51;100011.31;;;14.44;55.26
21779;BME280;11050;52.222;20.916;2023-05-02T05:51:17;100014.56;;;14.51;54.95
21779;BME280;11050;52.222;20.916;2023-05-02T05:53:43;100007.59;;;14.58;54.83
21779;BME280;11050;52.222;20.916;2023-05-02T05:56:10;100014.88;;;14.83;53.84
21779;BME280;11050;52.222;20.916;2023-05-02T05:58:37;100015.47;;;15.13;53.58
21779;BME280;11050;52.222;20.916;2023-05-02T06:01:03;100004.66;;;15.41;52.28
21779;BME280;11050;52.222;20.916;2023-05-02T06:03:29;100008.31;;;15.65;51.34
21779;BME280;11050;52.222;20.916;2023-05-02T06:05:56;100005.22;;;15.90;51.00
21779;BME280;11050;52.222;20.916;2023-05-02T06:08:21;100014.63;;;15.94;50.44
21779;BME280;11050;52.222;20.916;2023-05-02T06:10:47;100005.13;;;16.00;50.59
21779;BME280;11050;52.222;20.916;2023-05-02T06:13:12;100006.56;;;16.16;50.70
21779;BME280;11050;52.222;20.916;2023-05-02T06:15:38;100006.81;;;16.38;51.28
21779;BME280;11050;52.222;20.916;2023-05-02T06:18:04;99997.25;;;16.68;49.91
21779;BME280;11050;52.222;20.916;2023-05-02T06:20:29;100016.41;;;17.01;49.14
21779;BME280;11050;52.222;20.916;2023-05-02T06:22:55;100002.88;;;17.27;49.80
21779;BME280;11050;52.222;20.916;2023-05-02T06:25:21;100009.97;;;17.52;49.37
21779;BME280;11050;52.222;20.916;2023-05-02T06:27:47;100010.91;;;17.61;48.04
21779;BME280;11050;52.222;20.916;2023-05-02T06:30:13;100018.31;;;17.65;47.69
21779;BME280;11050;52.222;20.916;2023-05-02T06:32:38;100019.13;;;17.52;47.93
21779;BME280;11050;52.222;20.916;2023-05-02T06:35:07;100020.47;;;17.55;48.55
21779;BME280;11050;52.222;20.916;2023-05-02T06:37:35;100013.13;;;17.45;48.85
21779;BME280;11050;52.222;20.916;2023-05-02T06:40:02;100016.13;;;17.49;49.28
21779;BME280;11050;52.222;20.916;2023-05-02T06:42:27;100012.34;;;17.58;48.87
21779;BME280;11050;52.222;20.916;2023-05-02T06:44:54;100014.81;;;17.73;49.03
21779;BME280;11050;52.222;20.916;2023-05-02T06:47:20;100025.84;;;17.92;49.18
21779;BME280;11050;52.222;20.916;2023-05-02T06:49:50;100025.72;;;17.97;48.91
21779;BME280;11050;52.222;20.916;2023-05-02T06:52:16;100032.97;;;18.12;49.31
21779;BME280;11050;52.222;20.916;2023-05-02T06:54:41;100031.41;;;18.19;49.17
21779;BME280;11050;52.222;20.916;2023-05-02T06:57:07;100020.47;;;18.36;48.89
21779;BME280;11050;52.222;20.916;2023-05-02T06:59:33;100024.25;;;18.54;48.60
21779;BME280;11050;52.222;20.916;2023-05-02T07:01:59;100028.53;;;18.73;48.25
21779;BME280;11050;52.222;20.916;2023-05-02T07:04:24;100034.88;;;18.87;48.10
21779;BME280;11050;52.222;20.916;2023-05-02T07:06:50;100027.09;;;19.20;47.43
21779;BME280;11050;52.222;20.916;2023-05-02T07:09:16;100023.19;;;19.43;46.76
21779;BME280;11050;52.222;20.916;2023-05-02T07:11:41;100028.53;;;19.62;46.03
21779;BME280;11050;52.222;20.916;2023-05-02T07:14:07;100019.75;;;19.77;44.67
21779;BME280;11050;52.222;20.916;2023-05-02T07:16:33;100019.09;;;19.80;44.47
21779;BME280;11050;52.222;20.916;2023-05-02T07:18:58;100035.91;;;19.97;43.38
21779;BME280;11050;52.222;20.916;2023-05-02T07:21:26;100035.28;;;20.00;41.62
21779;BME280;11050;52.222;20.916;2023-05-02T07:23:51;100026.56;;;20.02;41.50
21779;BME280;11050;52.222;20.916;2023-05-02T07:26:19;100038.00;;;20.22;41.35
21779;BME280;11050;52.222;20.916;2023-05-02T07:28:45;100020.97;;;20.32;40.29
21779;BME280;11050;52.222;20.916;2023-05-02T07:31:11;100033.09;;;20.36;40.51
21779;BME280;11050;52.222;20.916;2023-05-02T07:33:36;100020.97;;;20.41;39.92
21779;BME280;11050;52.222;20.916;2023-05-02T07:36:02;100025.25;;;20.55;39.33
21779;BME280;11050;52.222;20.916;2023-05-02T07:38:28;100030.84;;;20.64;38.68
21779;BME280;11050;52.222;20.916;2023-05-02T07:40:57;100035.59;;;20.63;38.59
21779;BME280;11050;52.222;20.916;2023-05-02T07:43:23;100030.84;;;20.64;38.97
21779;BME280;11050;52.222;20.916;2023-05-02T07:45:49;100027.41;;;20.67;39.02
21779;BME280;11050;52.222;20.916;2023-05-02T07:48:15;100025.75;;;20.74;38.58
21779;BME280;11050;52.222;20.916;2023-05-02T07:50:41;100035.78;;;20.75;39.10
21779;BME280;11050;52.222;20.916;2023-05-02T07:53:06;100034.63;;;20.76;39.05
21779;BME280;11050;52.222;20.916;2023-05-02T07:55:32;100042.19;;;20.76;38.73
21779;BME280;11050;52.222;20.916;2023-05-02T07:57:58;100049.59;;;20.81;39.17
21779;BME280;11050;52.222;20.916;2023-05-02T08:00:25;100045.00;;;21.10;39.56
21779;BME280;11050;52.222;20.916;2023-05-02T08:02:50;100039.75;;;21.34;38.64
21779;BME280;11050;52.222;20.916;2023-05-02T08:05:16;100056.97;;;21.36;38.63
21779;BME280;11050;52.222;20.916;2023-05-02T08:07:42;100039.75;;;21.26;39.19
21779;BME280;11050;52.222;20.916;2023-05-02T08:10:09;100058.50;;;21.34;38.43
21779;BME280;11050;52.222;20.916;2023-05-02T08:12:39;100051.56;;;21.31;38.96
21779;BME280;11050;52.222;20.916;2023-05-02T08:15:08;100065.41;;;21.28;39.00
21779;BME280;11050;52.222;20.916;2023-05-02T08:17:34;100054.03;;;21.41;39.56
21779;BME280;11050;52.222;20.916;2023-05-02T08:20:00;100046.94;;;21.52;39.49
21779;BME280;11050;52.222;20.916;2023-05-02T08:22:26;100067.94;;;21.67;39.04
21779;BME280;11050;52.222;20.916;2023-05-02T08:24:51;100057.13;;;21.57;39.29
21779;BME280;11050;52.222;20.916;2023-05-02T08:27:17;100059.59;;;21.50;39.53
21779;BME280;11050;52.222;20.916;2023-05-02T08:29:43;100058.81;;;21.32;39.72
21779;BME280;11050;52.222;20.916;2023-05-02T08:32:08;100064.88;;;21.43;40.17
21779;BME280;11050;52.222;20.916;2023-05-02T08:34:34;100065.53;;;21.48;39.97
21779;BME280;11050;52.222;20.916;2023-05-02T08:36:59;100079.16;;;21.67;40.49
21779;BME280;11050;52.222;20.916;2023-05-02T08:39:25;100083.88;;;21.92;39.30
21779;BME280;11050;52.222;20.916;2023-05-02T08:41:51;100085.03;;;21.91;39.58
21779;BME280;11050;52.222;20.916;2023-05-02T08:44:16;100078.63;;;21.82;39.44
21779;BME280;11050;52.222;20.916;2023-05-02T08:46:43;100074.50;;;21.88;39.29
21779;BME280;11050;52.222;20.916;2023-05-02T08:49:10;100078.28;;;21.92;39.36
21779;BME280;11050;52.222;20.916;2023-05-02T08:51:37;100084.59;;;22.18;39.32
21779;BME280;11050;52.222;20.916;2023-05-02T08:54:04;100080.53;;;22.36;38.98
21779;BME280;11050;52.222;20.916;2023-05-02T08:56:32;100081.84;;;22.47;38.90
21779;BME280;11050;52.222;20.916;2023-05-02T08:58:57;100091.91;;;22.78;38.29
21779;BME280;11050;52.222;20.916;2023-05-02T09:01:27;100085.63;;;22.72;38.64
21779;BME280;11050;52.222;20.916;2023-05-02T09:03:54;100079.78;;;22.86;38.00
21779;BME280;11050;52.222;20.916;2023-05-02T09:06:22;100079.66;;;23.03;37.75
21779;BME280;11050;52.222;20.916;2023-05-02T09:08:50;100088.06;;;23.03;37.74
21779;BME280;11050;52.222;20.916;2023-05-02T09:11:18;100089.59;;;23.21;37.67
21779;BME280;11050;52.222;20.916;2023-05-02T09:13:49;100112.91;;;23.54;37.20
21779;BME280;11050;52.222;20.916;2023-05-02T09:16:21;100102.66;;;23.70;36.55
21779;BME280;11050;52.222;20.916;2023-05-02T09:18:50;100100.91;;;23.78;36.34
21779;BME280;11050;52.222;20.916;2023-05-02T09:21:18;100094.03;;;23.87;35.50
21779;BME280;11050;52.222;20.916;2023-05-02T09:26:28;100104.31;;;23.71;36.70
21779;BME280;11050;52.222;20.916;2023-05-02T09:29:03;100111.28;;;23.65;36.27
21779;BME280;11050;52.222;20.916;2023-05-02T09:31:33;100109.84;;;23.47;36.75
21779;BME280;11050;52.222;20.916;2023-05-02T09:34:15;100112.16;;;23.24;37.67
21779;BME280;11050;52.222;20.916;2023-05-02T09:36:47;100117.41;;;23.05;38.09
21779;BME280;11050;52.222;20.916;2023-05-02T09:39:20;100124.50;;;23.03;38.36
21779;BME280;11050;52.222;20.916;2023-05-02T09:41:47;100122.66;;;23.07;37.86
21779;BME280;11050;52.222;20.916;2023-05-02T09:44:16;100122.41;;;23.00;38.26
21779;BME280;11050;52.222;20.916;2023-05-02T09:47:03;100122.94;;;23.14;38.65
21779;BME280;11050;52.222;20.916;2023-05-02T09:49:43;100125.56;;;23.19;38.94
21779;BME280;11050;52.222;20.916;2023-05-02T09:52:17;100137.03;;;23.26;39.61
21779;BME280;11050;52.222;20.916;2023-05-02T09:54:46;100135.59;;;23.20;38.60
21779;BME280;11050;52.222;20.916;2023-05-02T09:57:15;100136.91;;;23.22;38.50
21779;BME280;11050;52.222;20.916;2023-05-02T09:59:51;100143.25;;;23.11;38.76
21779;BME280;11050;52.222;20.916;2023-05-02T10:02:18;100145.97;;;23.19;39.23
21779;BME280;11050;52.222;20.916;2023-05-02T10:04:47;100143.97;;;23.28;39.23
21779;BME280;11050;52.222;20.916;2023-05-02T10:07:15;100142.53;;;23.43;38.25
21779;BME280;11050;52.222;20.916;2023-05-02T10:09:43;100146.19;;;23.43;38.97
21779;BME280;11050;52.222;20.916;2023-05-02T10:12:14;100179.47;;;23.45;39.36
21779;BME280;11050;52.222;20.916;2023-05-02T10:14:49;100161.75;;;23.32;40.63
21779;BME280;11050;52.222;20.916;2023-05-02T10:17:38;100155.81;;;23.34;40.97
21779;BME280;11050;52.222;20.916;2023-05-02T10:20:07;100153.03;;;23.25;41.36
21779;BME280;11050;52.222;20.916;2023-05-02T10:22:35;100164.09;;;23.51;41.25
21779;BME280;11050;52.222;20.916;2023-05-02T10:25:02;100173.44;;;23.55;40.18
21779;BME280;11050;52.222;20.916;2023-05-02T10:27:30;100159.41;;;23.34;41.40
21779;BME280;11050;52.222;20.916;2023-05-02T10:29:59;100165.56;;;23.28;42.26
21779;BME280;11050;52.222;20.916;2023-05-02T10:32:28;100167.63;;;23.19;43.13
21779;BME280;11050;52.222;20.916;2023-05-02T10:34:56;100173.28;;;23.10;42.74
21779;BME280;11050;52.222;20.916;2023-05-02T10:37:25;100173.81;;;22.75;44.28
21779;BME280;11050;52.222;20.916;2023-05-02T10:39:52;100181.16;;;22.50;44.99
21779;BME280;11050;52.222;20.916;2023-05-02T10:42:19;100167.78;;;22.09;45.65
21779;BME280;11050;52.222;20.916;2023-05-02T10:44:46;100190.72;;;21.86;46.98
21779;BME280;11050;52.222;20.916;2023-05-02T10:47:25;100187.25;;;21.54;48.29
21779;BME280;11050;52.222;20.916;2023-05-02T10:49:52;100190.88;;;21.29;48.72
21779;BME280;11050;52.222;20.916;2023-05-02T10:54:51;100195.63;;;20.72;50.19
21779;BME280;11050;52.222;20.916;2023-05-02T10:57:17;100216.09;;;20.51;52.07
21779;BME280;11050;52.222;20.916;2023-05-02T10:59:42;100205.78;;;20.21;52.50
21779;BME280;11050;52.222;20.916;2023-05-02T11:05:06;100223.13;;;19.73;54.75
21779;BME280;11050;52.222;20.916;2023-05-02T11:07:34;100232.38;;;19.60;57.75
21779;BME280;11050;52.222;20.916;2023-05-02T11:12:54;100250.44;;;18.46;67.38
21779;BME280;11050;52.222;20.916;2023-05-02T11:18:23;100271.91;;;17.57;78.66
21779;BME280;11050;52.222;20.916;2023-05-02T11:20:49;100268.94;;;17.12;83.07
21779;BME280;11050;52.222;20.916;2023-05-02T11:25:47;100272.03;;;16.63;91.19
21779;BME280;11050;52.222;20.916;2023-05-02T11:28:45;100283.00;;;16.73;91.61
21779;BME280;11050;52.222;20.916;2023-05-02T11:33:59;100295.75;;;16.97;89.55
21779;BME280;11050;52.222;20.916;2023-05-02T11:36:32;100290.25;;;17.16;86.49
21779;BME280;11050;52.222;20.916;2023-05-02T11:39:00;100292.06;;;17.26;84.94
21779;BME280;11050;52.222;20.916;2023-05-02T11:41:42;100294.94;;;17.39;84.66
21779;BME280;11050;52.222;20.916;2023-05-02T11:44:08;100283.84;;;17.76;83.98
21779;BME280;11050;52.222;20.916;2023-05-02T11:46:38;100306.44;;;18.39;81.10
21779;BME280;11050;52.222;20.916;2023-05-02T11:49:05;100299.81;;;18.67;75.29
21779;BME280;11050;52.222;20.916;2023-05-02T11:51:33;100298.72;;;18.68;73.72
21779;BME280;11050;52.222;20.916;2023-05-02T11:53:58;100305.50;;;18.62;74.23
21779;BME280;11050;52.222;20.916;2023-05-02T11:56:25;100302.78;;;18.57;72.55
21779;BME280;11050;52.222;20.916;2023-05-02T11:59:01;100299.00;;;18.67;71.19
21779;BME280;11050;52.222;20.916;2023-05-02T12:01:28;100315.41;;;18.82;70.79
21779;BME280;11050;52.222;20.916;2023-05-02T12:04:02;100312.03;;;18.99;69.05
21779;BME280;11050;52.222;20.916;2023-05-02T12:06:28;100312.22;;;19.29;66.52
21779;BME280;11050;52.222;20.916;2023-05-02T12:09:12;100311.53;;;20.09;62.71
21779;BME280;11050;52.222;20.916;2023-05-02T12:11:38;100317.53;;;20.99;59.61
21779;BME280;11050;52.222;20.916;2023-05-02T12:14:04;100314.69;;;21.95;54.48
21779;BME280;11050;52.222;20.916;2023-05-02T12:16:31;100323.22;;;23.04;49.56
21779;BME280;11050;52.222;20.916;2023-05-02T12:18:57;100319.34;;;23.55;47.34
21779;BME280;11050;52.222;20.916;2023-05-02T12:21:29;100312.88;;;23.63;45.75
21779;BME280;11050;52.222;20.916;2023-05-02T12:23:57;100314.28;;;23.98;44.30
21779;BME280;11050;52.222;20.916;2023-05-02T12:26:25;100322.84;;;24.22;43.43
21779;BME280;11050;52.222;20.916;2023-05-02T12:28:54;100322.34;;;24.41;42.90
21779;BME280;11050;52.222;20.916;2023-05-02T12:31:21;100328.84;;;24.66;41.89
21779;BME280;11050;52.222;20.916;2023-05-02T12:33:48;100326.59;;;24.59;41.09
21779;BME280;11050;52.222;20.916;2023-05-02T12:36:15;100330.78;;;24.20;40.99
21779;BME280;11050;52.222;20.916;2023-05-02T12:38:53;100323.25;;;23.63;39.53
21779;BME280;11050;52.222;20.916;2023-05-02T12:41:37;100327.88;;;23.38;40.55
21779;BME280;11050;52.222;20.916;2023-05-02T12:44:04;100334.44;;;23.04;39.39
21779;BME280;11050;52.222;20.916;2023-05-02T12:46:30;100331.41;;;22.72;40.74
21779;BME280;11050;52.222;20.916;2023-05-02T12:49:07;100332.59;;;22.36;42.41
21779;BME280;11050;52.222;20.916;2023-05-02T12:51:34;100333.44;;;22.20;44.03
21779;BME280;11050;52.222;20.916;2023-05-02T12:54:02;100333.59;;;22.06;45.11
21779;BME280;11050;52.222;20.916;2023-05-02T12:56:28;100334.09;;;21.91;45.07
21779;BME280;11050;52.222;20.916;2023-05-02T12:58:57;100338.16;;;21.68;46.25
21779;BME280;11050;52.222;20.916;2023-05-02T13:01:28;100334.66;;;21.45;46.85
21779;BME280;11050;52.222;20.916;2023-05-02T13:03:55;100341.22;;;21.41;46.88
21779;BME280;11050;52.222;20.916;2023-05-02T13:06:21;100345.81;;;21.37;46.22
21779;BME280;11050;52.222;20.916;2023-05-02T13:08:47;100353.13;;;21.16;45.33
21779;BME280;11050;52.222;20.916;2023-05-02T13:11:12;100349.47;;;21.07;45.16
21779;BME280;11050;52.222;20.916;2023-05-02T13:13:39;100362.44;;;21.03;45.13
21779;BME280;11050;52.222;20.916;2023-05-02T13:16:05;100354.38;;;21.01;45.24
21779;BME280;11050;52.222;20.916;2023-05-02T13:18:32;100358.59;;;21.21;44.85
21779;BME280;11050;52.222;20.916;2023-05-02T13:20:57;100356.53;;;21.52;42.50